Westwego, LA (70094)

6:04 PM CST on February 01, 2015 (GMT -0600)
Gordon Ave. | Change Station
CLOSE
Current Station
Personal Weather Station
Location: Harahan, LA
Elevation: 20 ft
Nearby Weather Stations

Elev 20 ft 29.94 °N, 90.20 °W | Updated 26 seconds ago

Mostly Cloudy
Mostly Cloudy
69.3 °F
Feels Like 69.3 °F
N
1.3
Wind Variable Wind from WSW
Gusts 5.4 mph

Today
High -- | Low -- °F
--% Chance of Precip.
Yesterday
High -- | Low -- °F
Precip. -- in
6:51 AM 5:38 PM
Waxing Gibbous, 96% visible
Pressure 29.91 in
Visibility 10.0 miles
Clouds Mostly Cloudy 8500 ft
Dew Point 61 °F
Humidity 72%
Rainfall 0.04 in
Snow Depth Not available.
UV 0.0 out of 12
Pollen 8.60 out of 12
Air Quality Not available.
Flu Activity Not available.
METAR KMSY 012353Z 23014KT 10SM BKN085 21/16 A2990 RMK AO2 SLP127 T02110161 10239 20211 58001 $

More Conditions Fewer Conditions

Pressure 29.91 in
Visibility 10.0 miles
Clouds Mostly Cloudy 8500 ft
Dew Point 61 °F
Humidity 72%
Rainfall 0.04 in
Snow Depth Not available.
UV 0.0 out of 12
Pollen 8.60 out of 12
Air Quality Not available.
Flu Activity Not available.
METAR KMSY 012353Z 23014KT 10SM BKN085 21/16 A2990 RMK AO2 SLP127 T02110161 10239 20211 58001 $

More Conditions Fewer Conditions

10-Day Weather Forecast

Almanac

Astronomy

Feb. 01, 2015 Rise Set
Actual Time
Civil Twilight
Nautical Twilight
Astronomical Twilight
Moon
Length of Visible Light
Length of Day
Tomorrow will be .
, % of the Moon is Illuminated

Today's Extremes

State Highs State Lows

Community

WunderPhotos

Upload Photos

1,792,618 photos uploaded!

WunderBlogs® & News

Nearby

Air Quality

  Air Quality AQ Index Pollutant
Not available.

Snow Depth

Station Depth Elevation

Earthquake Activity

City Distance Mag. Time & Date
Minimum magnitude displayed is 2.5.

Coastal Water Temperatures

Place Temperature

Nearby Weather Stations